Tolona, Missouri
Current Conditions -  °F | °C
As of 11:35 PM on Wednesday 17 Dec 2014 (Local Time) from KHAE Reporting Station
Clear Clear  
Wind Chill: -2°   Ceiling: Unl
Heat Index: -2°   Visibility: 10mi
Dew Point: -6°   Wind: 0mph
Humidity: 74%   Direction: NA
Pressure: 30.3"   Gusts: NA
Location:  40.0949°N, 91.8336°W
Report Text: KHAE 180535Z AUTO 00000KT 10SM CLR M02/M06 A3030 RMK AO2
Loading
Personal Weather Stations






























Interactive Weather Map New forecast layout! Learn more

10-Day Weather Forecast

Advertisements
Track Severe Weather on mobile